Time;durP1;ratioP1;P1;durP2;ratioP2;P2;SDS_P1;SDS_P2;PMS_P1;PMS_P2;Temp;Humidity;BMP_temperature;BMP_pressure;BME280_temperature;BME280_humidity;BME280_pressure;Samples;Min_cycle;Max_cycle;Signal;HPM_P1;HPM_P2
2023/12/13 00:00:28;;;;;;;118.07;16.25;;;;;;;11.73;66.69;96922.00;4415598;32;20089;-80
2023/12/13 00:02:55;;;;;;;137.37;18.33;;;;;;;11.02;71.22;96928.22;4415662;32;20077;-80
2023/12/13 00:05:22;;;;;;;190.98;19.90;;;;;;;9.33;77.71;96920.97;4414374;32;20110;-80
2023/12/13 00:07:49;;;;;;;302.67;24.50;;;;;;;8.92;84.61;96912.94;4415249;32;20616;-80
2023/12/13 00:10:16;;;;;;;176.90;19.15;;;;;;;9.54;79.72;96913.81;4414852;32;20470;-80
2023/12/13 00:12:43;;;;;;;191.60;19.40;;;;;;;9.81;78.29;96903.69;4414876;32;20120;-80
2023/12/13 00:15:11;;;;;;;114.80;15.43;;;;;;;10.31;75.45;96907.63;4414356;32;20098;-80
2023/12/13 00:17:38;;;;;;;110.63;17.70;;;;;;;10.60;72.13;96900.72;4415142;32;20062;-80
2023/12/13 00:20:07;;;;;;;78.35;15.25;;;;;;;9.24;77.29;96900.91;4415673;32;20086;-80
2023/12/13 00:22:34;;;;;;;104.97;15.85;;;;;;;10.79;71.81;96909.00;4415784;32;20105;-80
2023/12/13 00:25:01;;;;;;;175.43;21.07;;;;;;;10.61;71.90;96907.53;4415656;32;20441;-80
2023/12/13 00:27:28;;;;;;;93.22;15.75;;;;;;;10.54;71.87;96901.13;4415330;32;20158;-80
2023/12/13 00:29:55;;;;;;;28.02;13.00;;;;;;;11.18;69.31;96899.72;4415444;32;20105;-81
2023/12/13 00:32:23;;;;;;;51.63;13.82;;;;;;;11.33;68.10;96892.72;4416170;32;20086;-81
2023/12/13 00:34:50;;;;;;;71.57;14.20;;;;;;;11.78;66.39;96884.56;4414716;32;20098;-81
2023/12/13 00:37:17;;;;;;;70.22;14.65;;;;;;;11.81;65.61;96883.59;4415844;32;20564;-81
2023/12/13 00:39:44;;;;;;;91.72;15.90;;;;;;;12.17;63.94;96885.47;4415141;32;20164;-80
2023/12/13 00:42:12;;;;;;;110.18;17.25;;;;;;;11.07;67.49;96873.75;4415005;32;20088;-80
2023/12/13 00:44:39;;;;;;;123.78;17.08;;;;;;;11.68;66.55;96865.44;4415510;32;20114;-80
2023/12/13 00:47:06;;;;;;;209.02;20.15;;;;;;;11.22;68.38;96868.41;4415387;32;20073;-80
2023/12/13 00:49:33;;;;;;;84.75;15.05;;;;;;;11.42;67.74;96863.72;4414881;32;20833;-80
2023/12/13 00:52:00;;;;;;;158.63;17.90;;;;;;;11.56;66.53;96869.66;4414113;32;20104;-80
2023/12/13 00:54:27;;;;;;;143.45;18.20;;;;;;;11.35;67.09;96871.03;4413917;32;20783;-80
2023/12/13 00:56:54;;;;;;;178.82;17.42;;;;;;;11.22;66.90;96862.44;4413262;32;20112;-80
2023/12/13 00:59:21;;;;;;;169.32;18.35;;;;;;;10.86;69.43;96861.25;4413714;32;20093;-80
2023/12/13 01:01:48;;;;;;;194.70;18.17;;;;;;;10.89;68.30;96865.41;4414222;32;20108;-80
2023/12/13 01:04:15;;;;;;;220.45;18.73;;;;;;;11.48;66.39;96861.59;4413767;32;20102;-80
2023/12/13 01:06:42;;;;;;;145.30;17.45;;;;;;;10.89;67.89;96861.06;4413576;32;20062;-80
2023/12/13 01:09:09;;;;;;;149.00;17.60;;;;;;;11.00;66.67;96862.97;4413533;32;20101;-80
2023/12/13 01:11:36;;;;;;;67.78;14.35;;;;;;;11.02;67.02;96861.94;4413859;32;20103;-80
2023/12/13 01:14:07;;;;;;;98.28;14.52;;;;;;;11.41;65.43;96852.56;4413807;32;20142;-80
2023/12/13 01:16:34;;;;;;;65.10;13.07;;;;;;;11.79;64.11;96850.06;4413717;32;20098;-80
2023/12/13 01:19:01;;;;;;;181.77;18.45;;;;;;;11.81;64.09;96837.06;4413415;32;20201;-80
2023/12/13 01:21:28;;;;;;;93.68;14.52;;;;;;;11.76;63.40;96826.16;4413226;32;20075;-80
2023/12/13 01:23:56;;;;;;;81.70;14.52;;;;;;;12.48;60.76;96835.06;4413137;32;20115;-80
2023/12/13 01:26:23;;;;;;;94.97;14.18;;;;;;;12.03;62.37;96837.28;4413402;32;20055;-80
2023/12/13 01:28:50;;;;;;;27.05;11.30;;;;;;;12.06;61.98;96839.66;4413548;32;20416;-80
2023/12/13 01:31:17;;;;;;;53.45;12.88;;;;;;;12.06;62.12;96834.47;4412517;32;20090;-80
2023/12/13 01:33:45;;;;;;;85.47;13.93;;;;;;;12.12;61.78;96834.06;4414126;32;20828;-80
2023/12/13 01:36:12;;;;;;;166.52;17.45;;;;;;;11.27;64.56;96830.22;4400526;32;20078;-80
2023/12/13 01:38:39;;;;;;;100.15;14.65;;;;;;;12.26;60.26;96833.13;4414084;32;20104;-80
2023/12/13 01:41:06;;;;;;;94.75;15.57;;;;;;;9.11;75.59;96815.84;4413724;32;20103;-79
2023/12/13 01:43:41;;;;;;;164.27;17.60;;;;;;;10.34;71.74;96818.06;4414270;32;20150;-80
2023/12/13 01:46:09;;;;;;;83.37;14.82;;;;;;;10.61;69.31;96805.19;4413409;32;20073;-80
2023/12/13 01:48:36;;;;;;;100.32;14.02;;;;;;;10.65;69.15;96804.09;4413996;32;20050;-80
2023/12/13 01:51:03;;;;;;;147.90;17.33;;;;;;;10.87;68.82;96795.00;4400152;32;20063;-80
2023/12/13 01:53:30;;;;;;;113.37;14.50;;;;;;;10.77;68.80;96788.75;4413695;32;20090;-80
2023/12/13 01:55:57;;;;;;;139.15;15.65;;;;;;;11.15;67.45;96788.88;4399893;32;20134;-80
2023/12/13 01:58:24;;;;;;;84.85;14.10;;;;;;;10.76;69.61;96795.69;4413561;32;20162;-80
2023/12/13 02:00:52;;;;;;;62.00;13.23;;;;;;;11.25;68.14;96797.66;4400110;32;20074;-80
2023/12/13 02:03:21;;;;;;;186.43;18.45;;;;;;;11.52;66.63;96793.28;4413343;32;20110;-80
2023/12/13 02:05:52;;;;;;;114.62;15.35;;;;;;;11.60;66.11;96787.63;4412362;32;20154;-80
2023/12/13 02:08:19;;;;;;;90.60;14.02;;;;;;;11.76;65.96;96785.66;4413383;32;20059;-80
2023/12/13 02:10:47;;;;;;;79.65;13.95;;;;;;;11.78;65.21;96781.19;4399347;32;20090;-79
2023/12/13 02:13:16;;;;;;;82.03;13.88;;;;;;;11.77;65.15;96774.38;4412898;32;20146;-80
2023/12/13 02:15:44;;;;;;;89.72;15.50;;;;;;;11.83;64.88;96771.44;4413303;32;20094;-80
2023/12/13 02:18:14;;;;;;;121.32;16.27;;;;;;;11.99;64.53;96767.78;4413222;32;20081;-80
2023/12/13 02:20:42;;;;;;;177.30;16.90;;;;;;;11.35;66.14;96764.34;4413162;32;20100;-80
2023/12/13 02:23:09;;;;;;;132.23;17.98;;;;;;;11.65;65.60;96761.47;4412687;32;20114;-80
2023/12/13 02:25:48;;;;;;;142.80;17.40;;;;;;;11.97;64.65;96756.72;4412559;32;20109;-80
2023/12/13 02:28:15;;;;;;;131.52;17.20;;;;;;;11.40;66.19;96750.19;4399031;32;20065;-80
2023/12/13 02:30:43;;;;;;;179.98;19.10;;;;;;;10.47;70.32;96745.91;4414472;32;20070;-80
2023/12/13 02:33:10;;;;;;;214.98;22.55;;;;;;;11.19;69.20;96738.72;4414362;32;20162;-81
2023/12/13 02:35:37;;;;;;;214.32;21.27;;;;;;;10.60;70.54;96738.22;4414790;32;20106;-80
2023/12/13 02:38:04;;;;;;;158.30;18.42;;;;;;;11.71;66.13;96719.72;4415268;32;20168;-80
2023/12/13 02:40:31;;;;;;;166.37;17.92;;;;;;;11.45;67.02;96734.38;4414965;32;20422;-80
2023/12/13 02:42:58;;;;;;;223.10;23.42;;;;;;;11.05;69.40;96731.03;4414962;32;20063;-80
2023/12/13 02:45:25;;;;;;;313.70;23.70;;;;;;;10.65;70.73;96739.59;4414840;32;20107;-80
2023/12/13 02:47:53;;;;;;;251.73;21.33;;;;;;;10.72;70.54;96742.59;4414428;32;20085;-80
2023/12/13 02:50:21;;;;;;;358.75;25.90;;;;;;;10.94;70.50;96737.72;4414356;32;20086;-80
2023/12/13 02:52:47;;;;;;;296.40;26.10;;;;;;;10.69;72.12;96738.47;4414278;32;20086;-80
2023/12/13 02:55:14;;;;;;;137.43;16.00;;;;;;;10.89;70.61;96734.62;4413454;32;20140;-80
2023/12/13 02:57:42;;;;;;;326.30;24.25;;;;;;;11.50;68.51;96742.66;4414452;32;20086;-80
2023/12/13 03:00:09;;;;;;;225.57;21.17;;;;;;;11.04;69.41;96732.78;4400761;32;20648;-80
2023/12/13 03:02:38;;;;;;;268.83;22.55;;;;;;;10.97;70.31;96732.38;4414014;32;20549;-80
2023/12/13 03:05:06;;;;;;;255.87;21.65;;;;;;;11.41;68.78;96718.28;4414315;32;20095;-80
2023/12/13 03:07:32;;;;;;;160.05;17.90;;;;;;;11.79;67.15;96727.75;4414359;32;20081;-79
2023/12/13 03:10:00;;;;;;;129.57;16.05;;;;;;;11.87;66.71;96725.50;4411883;32;20094;-79
2023/12/13 03:12:27;;;;;;;101.87;15.00;;;;;;;12.29;65.09;96731.22;4411921;32;20164;-79
2023/12/13 03:14:54;;;;;;;142.30;16.83;;;;;;;12.39;64.14;96727.03;4411799;32;20129;-79
2023/12/13 03:17:21;;;;;;;133.80;15.05;;;;;;;12.19;65.01;96720.69;4411730;32;20393;-79
2023/12/13 03:19:48;;;;;;;288.92;19.00;;;;;;;12.06;65.05;96709.56;4411347;32;20086;-79
2023/12/13 03:22:15;;;;;;;288.30;19.65;;;;;;;11.46;66.82;96710.22;4411131;32;20090;-79
2023/12/13 03:24:42;;;;;;;261.75;20.70;;;;;;;11.69;65.68;96696.56;4410883;32;20153;-79
2023/12/13 03:27:09;;;;;;;191.25;17.33;;;;;;;10.28;69.96;96686.13;4410867;32;20165;-79
2023/12/13 03:29:36;;;;;;;198.25;17.50;;;;;;;10.49;70.22;96683.94;4410346;32;20155;-79
2023/12/13 03:32:03;;;;;;;128.18;14.70;;;;;;;10.84;68.75;96689.38;4410902;32;20090;-79
2023/12/13 03:34:30;;;;;;;113.43;15.57;;;;;;;11.42;66.48;96691.53;4410903;32;20162;-79
2023/12/13 03:36:57;;;;;;;114.53;15.20;;;;;;;11.59;65.89;96680.88;4410524;32;20108;-79
2023/12/13 03:39:24;;;;;;;45.22;11.68;;;;;;;11.79;64.96;96676.06;4411020;32;20104;-79
2023/12/13 03:41:51;;;;;;;151.63;16.30;;;;;;;12.02;64.24;96671.94;4409874;32;20113;-79
2023/12/13 03:44:18;;;;;;;77.80;13.32;;;;;;;12.42;62.36;96670.72;4410541;32;20109;-79
2023/12/13 03:46:45;;;;;;;38.72;10.98;;;;;;;12.53;61.68;96679.50;4410659;32;20365;-79
2023/12/13 03:49:13;;;;;;;110.90;14.00;;;;;;;12.27;62.69;96671.84;4410751;32;20104;-79
2023/12/13 03:51:43;;;;;;;111.55;14.30;;;;;;;12.26;63.09;96671.97;4410453;32;20094;-78
2023/12/13 03:54:10;;;;;;;26.80;10.85;;;;;;;12.35;62.63;96669.53;4411003;32;20112;-78
2023/12/13 03:56:37;;;;;;;33.85;11.25;;;;;;;12.32;62.75;96666.34;4411010;32;20138;-80
2023/12/13 03:59:04;;;;;;;47.70;12.40;;;;;;;13.14;59.52;96686.19;4410432;32;20161;-79
2023/12/13 04:01:31;;;;;;;30.05;11.20;;;;;;;12.96;59.78;96683.19;4410733;32;20409;-79
2023/12/13 04:03:58;;;;;;;47.13;13.15;;;;;;;12.44;62.06;96684.41;4410868;32;20112;-79
2023/12/13 04:06:25;;;;;;;100.75;13.80;;;;;;;12.46;62.25;96684.28;4410303;32;20212;-79
2023/12/13 04:08:52;;;;;;;143.00;15.52;;;;;;;12.41;62.51;96678.63;4410985;32;20078;-79
2023/12/13 04:11:19;;;;;;;129.25;15.20;;;;;;;12.28;62.71;96678.66;4411135;32;20106;-78
2023/12/13 04:13:46;;;;;;;37.38;10.90;;;;;;;12.50;62.15;96671.97;4410538;32;20094;-79
2023/12/13 04:16:13;;;;;;;155.18;16.08;;;;;;;12.45;62.28;96674.88;4410565;32;20097;-79
2023/12/13 04:18:40;;;;;;;252.65;16.70;;;;;;;12.50;62.40;96674.53;4410717;32;20073;-79
2023/12/13 04:21:07;;;;;;;277.77;20.10;;;;;;;12.19;62.54;96687.06;4410936;32;20112;-79
2023/12/13 04:23:34;;;;;;;253.57;17.87;;;;;;;11.45;65.46;96685.31;4410661;32;20117;-79
2023/12/13 04:26:01;;;;;;;213.27;16.75;;;;;;;11.48;65.41;96688.53;4410270;32;20094;-79
2023/12/13 04:28:29;;;;;;;225.43;17.17;;;;;;;11.60;64.35;96679.13;4384710;32;20102;-79
2023/12/13 04:30:56;;;;;;;170.55;15.38;;;;;;;11.09;65.50;96678.28;4410193;32;20094;-79
2023/12/13 04:33:23;;;;;;;136.23;14.98;;;;;;;10.68;68.10;96674.09;4410206;32;20126;-79
2023/12/13 04:35:51;;;;;;;180.95;15.75;;;;;;;11.45;65.90;96680.16;4410183;32;20109;-79
2023/12/13 04:38:18;;;;;;;122.60;13.30;;;;;;;11.85;63.44;96680.88;4397026;32;20062;-79
2023/12/13 04:40:45;;;;;;;51.53;10.38;;;;;;;11.67;63.84;96689.84;4410521;32;20071;-79
2023/12/13 04:43:12;;;;;;;145.35;14.10;;;;;;;11.62;64.42;96684.19;4410810;32;20152;-79
2023/12/13 04:45:39;;;;;;;231.02;15.57;;;;;;;11.58;64.65;96679.19;4410387;32;20791;-79
2023/12/13 04:48:06;;;;;;;160.68;14.20;;;;;;;10.79;66.71;96679.38;4410138;32;20074;-79
2023/12/13 04:50:33;;;;;;;152.45;12.80;;;;;;;10.38;69.42;96669.16;4410298;32;20142;-79
2023/12/13 04:53:02;;;;;;;160.55;14.05;;;;;;;10.63;70.06;96665.81;4409760;32;20090;-79
2023/12/13 04:55:29;;;;;;;114.68;11.20;;;;;;;10.43;72.36;96669.69;4409558;32;20097;-79
2023/12/13 04:57:56;;;;;;;151.20;11.88;;;;;;;9.49;76.35;96671.22;4409975;32;20531;-79
2023/12/13 05:00:23;;;;;;;228.82;15.18;;;;;;;9.45;77.83;96673.13;4409904;32;20086;-79
2023/12/13 05:02:50;;;;;;;203.73;14.32;;;;;;;9.02;82.15;96661.97;4409906;32;20107;-79
2023/12/13 05:05:17;;;;;;;157.77;11.90;;;;;;;10.02;76.34;96657.63;4409829;32;20153;-79
2023/12/13 05:07:44;;;;;;;175.55;13.73;;;;;;;10.97;70.88;96660.13;4409611;32;20078;-79
2023/12/13 05:10:11;;;;;;;98.60;9.65;;;;;;;11.26;69.57;96658.12;4410234;32;20090;-79
2023/12/13 05:12:38;;;;;;;187.40;12.55;;;;;;;11.27;68.74;96658.97;4410258;32;20097;-79
2023/12/13 05:15:06;;;;;;;108.12;11.18;;;;;;;10.65;71.08;96651.91;4409814;32;20164;-79
2023/12/13 05:17:33;;;;;;;120.40;10.48;;;;;;;11.19;69.36;96646.59;4410228;32;20158;-79
2023/12/13 05:20:00;;;;;;;90.10;9.68;;;;;;;11.72;67.08;96644.69;4410009;32;20115;-79
2023/12/13 05:22:27;;;;;;;141.30;10.55;;;;;;;11.92;66.42;96650.25;4410409;32;20149;-79
2023/12/13 05:24:54;;;;;;;91.63;9.48;;;;;;;12.03;65.06;96651.16;4410246;32;20128;-79
2023/12/13 05:27:21;;;;;;;125.22;11.10;;;;;;;12.19;64.27;96652.63;4410415;32;20467;-80
2023/12/13 05:29:48;;;;;;;34.90;7.95;;;;;;;12.57;61.93;96650.72;4409665;32;20118;-80
2023/12/13 05:32:15;;;;;;;104.25;10.98;;;;;;;12.41;62.01;96643.22;4410414;32;20097;-79
2023/12/13 05:34:42;;;;;;;87.85;9.80;;;;;;;12.57;61.79;96649.88;4410080;32;20106;-79
2023/12/13 05:37:09;;;;;;;37.15;7.93;;;;;;;12.42;62.11;96646.63;4409932;32;20098;-79
2023/12/13 05:39:36;;;;;;;18.02;6.85;;;;;;;12.04;64.00;96654.56;4410485;32;20719;-79
2023/12/13 05:42:03;;;;;;;16.30;7.45;;;;;;;12.25;64.00;96654.78;4410618;32;20094;-79
2023/12/13 05:44:30;;;;;;;18.98;7.95;;;;;;;12.25;64.04;96658.22;4409884;32;20085;-80
2023/12/13 05:46:57;;;;;;;18.27;7.55;;;;;;;12.53;64.19;96638.91;4410125;32;20082;-79
2023/12/13 05:49:25;;;;;;;25.77;7.70;;;;;;;11.92;67.16;96638.16;4410409;32;20102;-79
2023/12/13 05:51:52;;;;;;;218.30;16.15;;;;;;;12.60;64.84;96644.47;4409889;32;20256;-79
2023/12/13 05:54:19;;;;;;;86.28;10.38;;;;;;;11.99;65.66;96644.53;4410329;32;20157;-79
2023/12/13 05:56:47;;;;;;;165.65;13.27;;;;;;;12.60;63.19;96636.72;4409892;32;20157;-80
2023/12/13 05:59:14;;;;;;;38.22;9.95;;;;;;;12.00;65.40;96646.19;4410382;32;20149;-79
2023/12/13 06:01:41;;;;;;;25.25;11.73;;;;;;;11.97;65.76;96645.56;4409895;32;20138;-79
2023/12/13 06:04:08;;;;;;;20.73;10.55;;;;;;;12.43;64.87;96636.16;4410075;32;20108;-79
2023/12/13 06:06:35;;;;;;;21.55;10.00;;;;;;;12.58;64.14;96638.59;4411045;32;20105;-80
2023/12/13 06:09:03;;;;;;;26.90;10.23;;;;;;;12.19;66.25;96643.12;4411680;32;20153;-79
2023/12/13 06:11:30;;;;;;;23.92;11.07;;;;;;;11.94;68.06;96638.03;4412701;32;20062;-80
2023/12/13 06:13:57;;;;;;;23.40;10.95;;;;;;;12.63;65.86;96631.31;4411874;32;20105;-79
2023/12/13 06:16:25;;;;;;;25.73;11.93;;;;;;;13.39;63.83;96635.13;4411608;32;20070;-79
2023/12/13 06:18:52;;;;;;;28.15;12.93;;;;;;;12.87;66.34;96633.88;4411411;32;20130;-79
2023/12/13 06:21:19;;;;;;;30.62;12.77;;;;;;;13.03;65.61;96630.00;4411401;32;20129;-79
2023/12/13 06:23:46;;;;;;;34.63;12.90;;;;;;;12.45;68.19;96628.31;4411570;32;20106;-80
2023/12/13 06:26:13;;;;;;;31.55;13.48;;;;;;;13.10;66.93;96632.97;4410862;32;20090;-79
2023/12/13 06:28:40;;;;;;;28.42;12.80;;;;;;;13.39;65.41;96638.56;4411160;32;20094;-79
2023/12/13 06:31:07;;;;;;;15.95;6.35;;;;;;;13.67;64.39;96628.66;4411005;32;20097;-79
2023/12/13 06:33:34;;;;;;;11.60;5.68;;;;;;;13.69;65.01;96637.16;4410981;32;20082;-79
2023/12/13 06:36:01;;;;;;;9.73;4.03;;;;;;;13.44;66.19;96633.84;4410893;32;20073;-79
2023/12/13 06:38:28;;;;;;;9.27;3.58;;;;;;;13.46;66.77;96631.16;4411222;32;20090;-79
2023/12/13 06:40:55;;;;;;;8.57;3.35;;;;;;;13.49;67.12;96639.50;4410775;32;20143;-79
2023/12/13 06:43:22;;;;;;;6.93;3.37;;;;;;;13.36;67.99;96646.56;4411294;32;20093;-79
2023/12/13 06:45:49;;;;;;;7.90;3.50;;;;;;;13.26;68.78;96646.44;4410658;32;20097;-79
2023/12/13 06:48:16;;;;;;;8.55;3.72;;;;;;;12.88;71.00;96646.69;4409608;32;20129;-79
2023/12/13 06:50:43;;;;;;;7.37;3.30;;;;;;;12.56;71.55;96645.66;4410744;32;20109;-78
2023/12/13 06:53:10;;;;;;;8.38;3.35;;;;;;;13.14;70.46;96643.91;4410334;32;20106;-79
2023/12/13 06:55:36;;;;;;;7.28;3.40;;;;;;;12.99;69.88;96658.84;4410434;32;20078;-79
2023/12/13 06:58:03;;;;;;;6.97;3.22;;;;;;;13.44;68.25;96656.34;4410572;32;20110;-79
2023/12/13 07:00:30;;;;;;;6.75;3.25;;;;;;;12.91;70.49;96659.41;4410154;32;20449;-80
2023/12/13 07:02:57;;;;;;;18.42;3.40;;;;;;;13.17;69.57;96648.84;4410530;32;20078;-79
2023/12/13 07:05:24;;;;;;;7.20;3.25;;;;;;;13.45;68.90;96661.41;4410579;32;20476;-79
2023/12/13 07:07:52;;;;;;;6.95;3.08;;;;;;;13.52;69.52;96652.25;4410158;32;20098;-79
2023/12/13 07:10:19;;;;;;;7.57;3.30;;;;;;;14.17;66.57;96654.06;4410717;32;20116;-79
2023/12/13 07:12:46;;;;;;;39.40;4.72;;;;;;;14.08;67.14;96644.41;4410928;32;20094;-79
2023/12/13 07:15:14;;;;;;;11.05;3.30;;;;;;;14.11;66.85;96645.94;4410335;32;20165;-79
2023/12/13 07:17:42;;;;;;;266.63;14.38;;;;;;;14.56;64.55;96656.19;4410733;32;20160;-79
2023/12/13 07:20:10;;;;;;;50.95;4.65;;;;;;;13.53;67.76;96645.28;4410667;32;20098;-80
2023/12/13 07:22:37;;;;;;;5.35;2.78;;;;;;;13.78;67.26;96642.44;4412558;32;20049;-81
2023/12/13 07:25:08;;;;;;;5.95;3.20;;;;;;;14.54;64.93;96642.53;4410044;32;20078;-81
2023/12/13 07:27:35;;;;;;;5.05;2.53;;;;;;;14.40;65.71;96635.81;4411343;32;20446;-82
2023/12/13 07:30:03;;;;;;;14.95;3.47;;;;;;;14.14;66.77;96627.50;4411077;32;20117;-79
2023/12/13 07:32:31;;;;;;;7.05;3.17;;;;;;;13.97;66.81;96626.28;4412052;32;20147;-80
2023/12/13 07:34:59;;;;;;;6.37;3.28;;;;;;;14.34;66.16;96628.53;4410795;32;20145;-82
2023/12/13 07:37:26;;;;;;;7.97;3.72;;;;;;;14.03;66.47;96617.16;4412789;32;20074;-82
2023/12/13 07:39:53;;;;;;;7.82;3.62;;;;;;;13.89;67.38;96607.91;4414562;32;20106;-83
2023/12/13 07:42:21;;;;;;;9.13;4.75;;;;;;;13.98;67.11;96595.97;4415126;32;20082;-83
2023/12/13 07:44:47;;;;;;;11.00;4.80;;;;;;;13.99;66.91;96587.25;4412039;32;20087;-82
2023/12/13 07:47:14;;;;;;;10.98;4.60;;;;;;;14.09;66.79;96586.41;4411810;32;20099;-83
2023/12/13 07:49:41;;;;;;;9.52;4.50;;;;;;;13.71;67.87;96594.59;4412702;32;20477;-83
2023/12/13 07:52:09;;;;;;;11.10;4.57;;;;;;;13.07;70.57;96596.09;4413729;32;20063;-83
2023/12/13 07:57:06;;;;;;;46.90;7.12;;;;;;;10.76;84.04;96607.34;4397253;32;20077;-83
2023/12/13 07:59:33;;;;;;;192.37;12.60;;;;;;;12.44;76.00;96609.41;4382414;32;20132;-83
2023/12/13 08:02:01;;;;;;;146.00;10.73;;;;;;;13.73;67.59;96621.25;4396181;32;20087;-84
2023/12/13 08:04:28;;;;;;;169.70;10.50;;;;;;;12.91;71.29;96622.34;4395690;32;20083;-84
2023/12/13 08:06:56;;;;;;;42.30;6.80;;;;;;;12.25;74.67;96627.19;4394715;32;20110;-84
2023/12/13 08:09:23;;;;;;;37.60;6.82;;;;;;;13.11;71.32;96626.03;4402525;32;20157;-83
2023/12/13 08:11:50;;;;;;;107.55;8.32;;;;;;;13.43;69.20;96631.38;4402577;32;20078;-84
2023/12/13 08:14:17;;;;;;;93.55;8.98;;;;;;;13.98;64.93;96627.91;4396241;32;20086;-83
2023/12/13 08:16:44;;;;;;;196.55;14.60;;;;;;;14.10;64.87;96620.94;4395730;32;20103;-83
2023/12/13 08:19:11;;;;;;;180.32;15.15;;;;;;;12.17;70.78;96626.88;4394652;32;20086;-82
2023/12/13 08:21:40;;;;;;;213.77;15.10;;;;;;;11.86;74.74;96620.47;4395089;32;20086;-83
2023/12/13 08:24:11;;;;;;;143.00;13.38;;;;;;;11.93;74.95;96631.22;4394695;32;20125;-82
2023/12/13 08:26:38;;;;;;;136.73;15.82;;;;;;;11.97;74.93;96622.31;4394194;32;20106;-83
2023/12/13 08:29:05;;;;;;;205.35;19.73;;;;;;;11.83;75.30;96608.63;4394811;32;20112;-83
2023/12/13 08:31:34;;;;;;;105.28;16.37;;;;;;;10.59;82.37;96607.63;4396122;32;20111;-82
2023/12/13 08:34:01;;;;;;;83.47;13.48;;;;;;;12.21;75.80;96617.16;4397934;32;20097;-82
2023/12/13 08:36:28;;;;;;;176.65;17.23;;;;;;;13.05;70.98;96619.53;4395086;32;20445;-81
2023/12/13 08:38:55;;;;;;;120.93;14.23;;;;;;;12.94;71.46;96617.75;4395628;32;20583;-81
2023/12/13 08:41:22;;;;;;;47.47;12.05;;;;;;;13.19;69.80;96614.19;4398053;32;20069;-83
2023/12/13 08:43:49;;;;;;;186.50;17.33;;;;;;;13.30;69.39;96618.56;4401263;32;20062;-83
2023/12/13 08:46:20;;;;;;;54.17;13.62;;;;;;;13.49;68.60;96618.75;4401068;32;20114;-83
2023/12/13 08:48:47;;;;;;;22.45;11.12;;;;;;;13.56;67.99;96627.72;4395716;32;20161;-83
2023/12/13 08:51:15;;;;;;;34.33;15.63;;;;;;;14.46;63.93;96618.03;4398232;32;20097;-79
2023/12/13 08:53:42;;;;;;;41.72;20.48;;;;;;;14.25;64.75;96621.47;4394553;32;20438;-80
2023/12/13 08:56:09;;;;;;;41.08;19.67;;;;;;;14.49;64.65;96622.16;4534565;26;20078;-78
2023/12/13 08:58:36;;;;;;;39.13;20.20;;;;;;;14.54;64.19;96630.38;4411997;32;20142;-78
2023/12/13 09:01:04;;;;;;;41.37;18.25;;;;;;;14.94;62.69;96637.50;4409678;32;20148;-78
2023/12/13 09:03:31;;;;;;;38.53;19.73;;;;;;;15.22;60.98;96646.44;4408753;32;20796;-79
2023/12/13 09:08:34;;;;;;;48.00;20.52;;;;;;;14.17;64.76;96643.69;4378041;32;20146;-79
2023/12/13 09:11:02;;;;;;;57.28;20.20;;;;;;;14.05;65.10;96652.44;4379780;32;20094;-80
2023/12/13 09:13:30;;;;;;;38.97;20.25;;;;;;;14.14;64.78;96646.53;4380568;32;20079;-80
2023/12/13 09:15:57;;;;;;;49.33;24.45;;;;;;;14.99;61.71;96635.34;4392094;27;20115;-81
2023/12/13 09:18:25;;;;;;;62.22;29.55;;;;;;;14.63;63.45;96645.19;4394858;32;20579;-79
2023/12/13 09:20:52;;;;;;;71.28;31.12;;;;;;;15.45;60.09;96641.91;4397509;32;20100;-80
2023/12/13 09:23:23;;;;;;;128.07;31.45;;;;;;;15.05;61.15;96643.44;4397060;32;20086;-80
2023/12/13 09:25:50;;;;;;;57.53;25.80;;;;;;;14.77;62.41;96647.47;4401477;32;20102;-81
2023/12/13 09:28:18;;;;;;;96.40;18.95;;;;;;;14.38;63.52;96646.34;4413287;32;20066;-81
2023/12/13 09:30:45;;;;;;;111.78;18.45;;;;;;;14.13;64.17;96634.47;4413006;32;20094;-80
2023/12/13 09:33:13;;;;;;;26.83;11.45;;;;;;;14.35;64.35;96636.19;4410313;32;20528;-80
2023/12/13 09:35:42;;;;;;;22.15;10.73;;;;;;;14.69;62.21;96633.50;4410096;32;20070;-80
2023/12/13 09:38:09;;;;;;;158.05;15.70;;;;;;;15.42;59.28;96644.72;4412654;32;20114;-80
2023/12/13 09:40:36;;;;;;;65.03;13.35;;;;;;;14.36;62.63;96639.63;4413878;32;20087;-78
2023/12/13 09:43:04;;;;;;;64.68;12.48;;;;;;;14.38;62.71;96640.31;4415061;32;20100;-78
2023/12/13 09:45:32;;;;;;;98.57;12.90;;;;;;;14.73;61.54;96625.34;4411548;32;20170;-79
2023/12/13 09:47:59;;;;;;;77.78;11.12;;;;;;;14.56;61.79;96632.84;4397991;32;20124;-79
2023/12/13 09:50:26;;;;;;;75.03;11.05;;;;;;;14.01;63.36;96640.63;4399140;32;20062;-78
2023/12/13 09:52:55;;;;;;;29.05;8.48;;;;;;;13.75;64.04;96644.47;4397107;32;20086;-79
2023/12/13 09:55:22;;;;;;;14.73;7.60;;;;;;;13.91;63.81;96634.53;4396841;32;20102;-78
2023/12/13 09:57:50;;;;;;;16.98;7.35;;;;;;;14.49;61.60;96621.31;4410900;32;20112;-78
2023/12/13 10:00:17;;;;;;;66.15;9.88;;;;;;;13.99;63.94;96611.41;4410895;32;20790;-79
2023/12/13 10:02:46;;;;;;;13.38;7.07;;;;;;;13.76;64.91;96605.44;4410428;32;20078;-79
2023/12/13 10:05:17;;;;;;;22.33;7.65;;;;;;;14.63;62.17;96600.25;4410442;32;20546;-80
2023/12/13 10:07:44;;;;;;;15.68;7.10;;;;;;;14.68;61.37;96591.16;4411103;32;20470;-79
2023/12/13 10:10:11;;;;;;;80.15;9.95;;;;;;;14.66;61.85;96589.59;4410433;32;20141;-80
2023/12/13 10:12:38;;;;;;;12.52;6.47;;;;;;;14.25;63.36;96583.41;4410815;32;20073;-80
2023/12/13 10:15:10;;;;;;;27.23;5.62;;;;;;;15.04;60.96;96584.66;4410192;32;20139;-79
2023/12/13 10:17:39;;;;;;;12.60;4.75;;;;;;;14.93;61.05;96587.34;4410290;32;20133;-78
2023/12/13 10:20:08;;;;;;;47.70;6.85;;;;;;;15.01;60.24;96587.53;4410726;32;20096;-79
2023/12/13 10:22:36;;;;;;;38.20;5.70;;;;;;;13.78;63.59;96577.63;4410544;32;20113;-80
2023/12/13 10:25:05;;;;;;;34.33;5.90;;;;;;;13.78;63.74;96569.84;4408974;32;20126;-78
2023/12/13 10:27:32;;;;;;;56.92;6.70;;;;;;;13.97;63.24;96577.00;4410828;32;20090;-78
2023/12/13 10:30:00;;;;;;;39.63;6.07;;;;;;;13.50;65.10;96562.59;4410735;32;20101;-80
2023/12/13 10:32:27;;;;;;;33.95;5.10;;;;;;;13.56;65.68;96555.16;4396710;32;20149;-80
2023/12/13 10:34:54;;;;;;;16.80;4.68;;;;;;;13.48;65.80;96569.66;4410574;32;20098;-80
2023/12/13 10:37:26;;;;;;;12.93;5.35;;;;;;;13.69;65.77;96570.56;4411466;32;20106;-81
2023/12/13 10:39:56;;;;;;;11.73;4.75;;;;;;;14.38;63.61;96562.47;4414197;32;20125;-80
2023/12/13 10:42:24;;;;;;;11.85;5.20;;;;;;;14.43;63.91;96552.53;4411076;32;20130;-82
2023/12/13 10:44:52;;;;;;;37.85;5.72;;;;;;;14.17;65.44;96544.28;4410130;32;20095;-82
2023/12/13 10:47:24;;;;;;;65.95;6.15;;;;;;;14.83;63.13;96551.88;4410698;32;20113;-81
2023/12/13 10:49:55;;;;;;;78.82;7.37;;;;;;;14.67;63.24;96549.72;4410222;32;20100;-81
2023/12/13 10:52:26;;;;;;;39.80;5.70;;;;;;;14.66;63.00;96551.50;4396796;32;20082;-82
2023/12/13 10:54:53;;;;;;;41.33;6.10;;;;;;;14.50;63.10;96542.50;4410565;32;20102;-81
2023/12/13 10:57:21;;;;;;;60.40;6.62;;;;;;;14.38;64.17;96531.34;4410777;32;20201;-79
2023/12/13 10:59:48;;;;;;;32.28;5.45;;;;;;;14.68;62.89;96530.63;4410610;32;20086;-81
2023/12/13 11:02:16;;;;;;;30.33;5.35;;;;;;;14.87;62.08;96529.88;4410459;32;20119;-81
2023/12/13 11:04:43;;;;;;;14.87;5.32;;;;;;;14.21;63.77;96524.09;4410707;32;20113;-81
2023/12/13 11:07:11;;;;;;;43.28;6.10;;;;;;;14.59;63.39;96521.00;4411090;32;20265;-81
2023/12/13 11:09:51;;;;;;;24.10;5.62;;;;;;;14.36;64.67;96517.69;4414235;32;20105;-82
2023/12/13 11:12:18;;;;;;;28.23;5.93;;;;;;;14.30;64.79;96515.56;4412791;32;20063;-82
2023/12/13 11:14:50;;;;;;;20.25;5.25;;;;;;;14.82;63.35;96512.09;4411781;32;20121;-81
2023/12/13 11:17:21;;;;;;;78.90;8.70;;;;;;;14.91;62.75;96511.34;4410507;32;20108;-80
2023/12/13 11:19:51;;;;;;;63.30;8.15;;;;;;;14.34;64.18;96512.59;4410141;32;20101;-80
2023/12/13 11:22:23;;;;;;;72.43;9.05;;;;;;;14.48;64.17;96510.69;4410035;32;20078;-81